Terminal Aerodrome Forecast
Issued by NWS

Current Version | Previous Version | Text Only | Print | Product List | Glossary On
Versions: 1 2 3 4 5 6 7 8 9 10 11 12
868
FTUS46 KLOX 172333
TAFVNY
TAF
KVNY 172333Z 1800/1824 36011KT P6SM BKN200
     FM180300 01007KT P6SM SCT200
     FM180600 VRB03KT P6SM SCT200
     FM182300 15006KT P6SM SCT200=

USA.gov is the U.S. government's official web portal to all federal, state and local government web resources and services.